createdAt,value
2022-12-11T00:01:33.946Z,97990.66
2022-12-11T00:04:36.710Z,97983.75
2022-12-11T00:07:39.181Z,97991.47
2022-12-11T00:10:48.735Z,97971.09
2022-12-11T00:13:51.257Z,97972.50
2022-12-11T00:16:54.141Z,97986.56
2022-12-11T00:19:58.858Z,97975.81
2022-12-11T00:23:02.433Z,97961.75
2022-12-11T00:26:09.429Z,97951.03
2022-12-11T00:29:15.953Z,97967.75
2022-12-11T00:32:18.451Z,97955.53
2022-12-11T00:35:21.504Z,97955.16
2022-12-11T00:38:24.346Z,97958.66
2022-12-11T00:41:27.373Z,97951.44
2022-12-11T00:44:29.840Z,97952.25
2022-12-11T00:47:32.654Z,97945.91
2022-12-11T00:50:36.226Z,97944.25
2022-12-11T00:53:39.712Z,97949.47
2022-12-11T00:56:42.693Z,97951.31
2022-12-11T00:59:45.502Z,97957.56
2022-12-11T01:02:48.746Z,97967.59
2022-12-11T01:05:55.318Z,97964.72
2022-12-11T01:09:16.461Z,97949.91
2022-12-11T01:12:19.343Z,97963.03
2022-12-11T01:15:24.065Z,97973.87
2022-12-11T01:18:27.669Z,97974.63
2022-12-11T01:21:30.338Z,97975.03
2022-12-11T01:24:33.557Z,97985.16
2022-12-11T01:27:37.587Z,97981.91
2022-12-11T01:30:43.013Z,97969.88
2022-12-11T01:33:45.714Z,97981.19
2022-12-11T01:36:48.532Z,97994.03
2022-12-11T01:39:51.379Z,97993.56
2022-12-11T01:42:54.182Z,97984.09
2022-12-11T01:45:56.669Z,97992.12
2022-12-11T01:49:01.183Z,97989.03
2022-12-11T01:52:09.225Z,97985.31
2022-12-11T01:55:12.776Z,97988.25
2022-12-11T01:58:17.440Z,97999.41
2022-12-11T02:01:47.984Z,98001.63
2022-12-11T02:04:51.996Z,98003.16
2022-12-11T02:07:58.853Z,98004.72
2022-12-11T02:11:20.089Z,97998.31
2022-12-11T02:14:55.914Z,97997.06
2022-12-11T02:18:23.878Z,97998.31
2022-12-11T02:21:35.709Z,98007.41
2022-12-11T02:25:03.590Z,98005.81
2022-12-11T02:28:15.231Z,98004.87
2022-12-11T02:31:49.702Z,97994.94
2022-12-11T02:35:07.988Z,98003.69
2022-12-11T02:38:16.867Z,97989.09
2022-12-11T02:41:21.902Z,97985.19
2022-12-11T02:44:29.527Z,98001.09
2022-12-11T02:47:33.556Z,97994.84
2022-12-11T02:50:42.605Z,97989.75
2022-12-11T02:53:46.748Z,97977.12
2022-12-11T02:57:06.398Z,97987.63
2022-12-11T03:00:09.690Z,97988.59
2022-12-11T03:03:13.277Z,97970.50
2022-12-11T03:06:20.446Z,97980.56
2022-12-11T03:09:23.700Z,97977.72
2022-12-11T03:12:33.185Z,97968.50
2022-12-11T03:16:13.425Z,97975.22
2022-12-11T03:19:36.274Z,97971.78
2022-12-11T03:22:57.202Z,97968.72
2022-12-11T03:26:06.401Z,97970.72
2022-12-11T03:29:23.228Z,97968.59
2022-12-11T03:32:35.619Z,97972.72
2022-12-11T03:35:48.717Z,97964.34
2022-12-11T03:39:02.244Z,97972.72
2022-12-11T03:42:10.061Z,97957.13
2022-12-11T03:45:14.616Z,97975.91
2022-12-11T03:48:20.140Z,97974.94
2022-12-11T03:51:24.794Z,97975.63
2022-12-11T03:54:28.405Z,97978.50
2022-12-11T03:57:35.139Z,97977.44
2022-12-11T04:00:38.501Z,97976.88
2022-12-11T04:03:42.639Z,97965.16
2022-12-11T04:06:45.369Z,97977.41
2022-12-11T04:09:48.614Z,97981.63
2022-12-11T04:12:51.383Z,97987.59
2022-12-11T04:15:54.523Z,97979.47
2022-12-11T04:19:16.284Z,97987.63
2022-12-11T04:22:38.521Z,98000.22
2022-12-11T04:25:41.215Z,97991.84
2022-12-11T04:28:47.190Z,98000.72
2022-12-11T04:31:50.729Z,98002.56
2022-12-11T04:34:53.527Z,98011.22
2022-12-11T04:37:56.166Z,98007.69
2022-12-11T04:41:05.141Z,98013.81
2022-12-11T04:44:08.306Z,98014.41
2022-12-11T04:47:11.458Z,98027.72
2022-12-11T04:50:17.858Z,98047.44
2022-12-11T04:53:23.141Z,98056.91
2022-12-11T04:56:25.742Z,98053.91
2022-12-11T04:59:28.625Z,98050.59
2022-12-11T05:02:35.211Z,98045.72
2022-12-11T05:05:38.108Z,98056.56
2022-12-11T05:08:42.411Z,98066.25
2022-12-11T05:11:45.280Z,98062.25
2022-12-11T05:14:47.853Z,98065.09
2022-12-11T05:17:50.760Z,98069.81
2022-12-11T05:21:01.320Z,98061.94
2022-12-11T05:24:04.553Z,98067.47
2022-12-11T05:27:07.598Z,98068.69
2022-12-11T05:30:12.389Z,98072.31
2022-12-11T05:33:15.020Z,98078.47
2022-12-11T05:36:24.528Z,98073.00
2022-12-11T05:39:27.170Z,98070.22
2022-12-11T05:42:32.289Z,98071.88
2022-12-11T05:45:34.875Z,98070.66
2022-12-11T05:48:38.517Z,98071.25
2022-12-11T05:51:42.162Z,98074.09
2022-12-11T05:54:44.963Z,98067.06
2022-12-11T05:57:47.463Z,98081.59
2022-12-11T06:00:50.210Z,98078.22
2022-12-11T06:03:54.250Z,98086.81
2022-12-11T06:06:56.790Z,98091.81
2022-12-11T06:09:59.587Z,98101.22
2022-12-11T06:13:06.613Z,98112.00
2022-12-11T06:16:10.820Z,98119.72
2022-12-11T06:19:15.306Z,98127.25
2022-12-11T06:22:18.218Z,98132.00
2022-12-11T06:25:20.804Z,98138.00
2022-12-11T06:28:23.819Z,98140.91
2022-12-11T06:31:26.550Z,98146.31
2022-12-11T06:34:29.526Z,98163.53
2022-12-11T06:37:32.073Z,98156.44
2022-12-11T06:40:34.980Z,98158.97
2022-12-11T06:43:42.244Z,98157.69
2022-12-11T06:46:45.555Z,98168.34
2022-12-11T06:49:48.534Z,98183.12
2022-12-11T06:52:51.518Z,98185.47
2022-12-11T06:55:53.977Z,98195.19
2022-12-11T06:59:05.699Z,98211.00
2022-12-11T07:02:13.564Z,98212.13
2022-12-11T07:05:16.710Z,98220.28
2022-12-11T07:08:19.846Z,98219.31
2022-12-11T07:11:23.547Z,98211.22
2022-12-11T07:14:26.184Z,98214.84
2022-12-11T07:17:29.998Z,98214.19
2022-12-11T07:20:37.774Z,98225.47
2022-12-11T07:23:41.549Z,98221.75
2022-12-11T07:26:44.187Z,98225.44
2022-12-11T07:29:47.053Z,98221.50
2022-12-11T07:32:50.238Z,98227.41
2022-12-11T07:35:53.258Z,98225.97
2022-12-11T07:38:56.549Z,98220.19
2022-12-11T07:41:59.739Z,98225.59
2022-12-11T07:45:09.128Z,98239.38
2022-12-11T07:48:13.714Z,98240.69
2022-12-11T07:51:30.629Z,98248.72
2022-12-11T07:54:33.922Z,98246.84
2022-12-11T07:57:37.454Z,98249.00
2022-12-11T08:00:45.298Z,98254.97
2022-12-11T08:03:49.267Z,98271.41
2022-12-11T08:06:51.848Z,98278.03
2022-12-11T08:09:54.752Z,98274.00
2022-12-11T08:12:57.424Z,98283.31
2022-12-11T08:16:09.824Z,98289.81
2022-12-11T08:19:13.124Z,98287.91
2022-12-11T08:22:16.137Z,98302.94
2022-12-11T08:25:18.880Z,98315.50
2022-12-11T08:28:21.684Z,98334.25
2022-12-11T08:31:30.943Z,98328.31
2022-12-11T08:34:34.062Z,98337.50
2022-12-11T08:37:38.503Z,98342.28
2022-12-11T08:40:41.690Z,98343.03
2022-12-11T08:43:44.810Z,98359.34
2022-12-11T08:46:48.155Z,98371.16
2022-12-11T08:49:51.674Z,98369.47
2022-12-11T08:52:59.540Z,98358.81
2022-12-11T08:56:13.589Z,98369.66
2022-12-11T08:59:17.513Z,98369.97
2022-12-11T09:02:23.174Z,98369.69
2022-12-11T09:05:26.544Z,98371.34
2022-12-11T09:08:29.928Z,98380.28
2022-12-11T09:11:35.747Z,98371.97
2022-12-11T09:14:38.295Z,98364.47
2022-12-11T09:17:41.220Z,98384.97
2022-12-11T09:20:44.033Z,98368.69
2022-12-11T09:23:49.319Z,98372.78
2022-12-11T09:26:52.150Z,98378.13
2022-12-11T09:29:55.065Z,98389.53
2022-12-11T09:32:57.618Z,98394.16
2022-12-11T09:36:02.830Z,98390.75
2022-12-11T09:39:07.514Z,98388.81
2022-12-11T09:42:31.571Z,98397.59
2022-12-11T09:45:34.165Z,98404.69
2022-12-11T09:48:38.603Z,98386.00
2022-12-11T09:51:51.340Z,98365.03
2022-12-11T09:55:02.533Z,98367.38
2022-12-11T09:58:27.487Z,98361.00
2022-12-11T10:01:46.020Z,98370.63
2022-12-11T10:05:15.303Z,98364.53
2022-12-11T10:08:43.362Z,98356.63
2022-12-11T10:11:56.892Z,98350.66
2022-12-11T10:15:18.915Z,98354.94
2022-12-11T10:18:25.527Z,98359.28
2022-12-11T10:21:36.922Z,98373.69
2022-12-11T10:28:17.144Z,98388.09
2022-12-11T10:31:29.710Z,98396.62
2022-12-11T10:34:44.167Z,98409.81
2022-12-11T10:37:47.080Z,98407.28
2022-12-11T10:41:11.934Z,98395.00
2022-12-11T10:44:23.778Z,98406.34
2022-12-11T10:47:27.081Z,98405.84
2022-12-11T10:50:30.483Z,98425.66
2022-12-11T10:53:34.318Z,98423.34
2022-12-11T10:56:38.182Z,98422.28
2022-12-11T10:59:43.674Z,98421.97
2022-12-11T11:02:46.910Z,98428.53
2022-12-11T11:05:50.777Z,98429.00
2022-12-11T11:08:57.458Z,98427.66
2022-12-11T11:12:06.017Z,98425.41
2022-12-11T11:15:14.456Z,98415.56
2022-12-11T11:18:26.582Z,98418.53
2022-12-11T11:21:31.879Z,98413.16
2022-12-11T11:24:47.968Z,98400.87
2022-12-11T11:28:15.578Z,98411.88
2022-12-11T11:31:21.213Z,98412.97
2022-12-11T11:34:26.192Z,98422.94
2022-12-11T11:37:34.432Z,98437.63
2022-12-11T11:40:43.145Z,98442.84
2022-12-11T11:43:53.124Z,98448.25
2022-12-11T11:47:01.038Z,98445.31
2022-12-11T11:50:22.728Z,98450.97
2022-12-11T11:53:38.026Z,98458.22
2022-12-11T11:56:40.473Z,98463.91
2022-12-11T11:59:49.924Z,98478.06
2022-12-11T12:03:01.287Z,98466.53
2022-12-11T12:06:32.302Z,98472.75
2022-12-11T12:09:54.010Z,98478.84
2022-12-11T12:13:30.178Z,98485.09
2022-12-11T12:17:14.297Z,98482.16
2022-12-11T12:20:32.702Z,98487.50
2022-12-11T12:23:53.666Z,98485.97
2022-12-11T12:27:17.584Z,98492.91
2022-12-11T12:30:36.854Z,98494.44
2022-12-11T12:33:58.282Z,98488.84
2022-12-11T12:37:25.622Z,98487.62
2022-12-11T12:41:01.091Z,98483.31
2022-12-11T12:44:13.587Z,98483.66
2022-12-11T12:47:18.514Z,98489.09
2022-12-11T12:50:26.422Z,98492.78
2022-12-11T12:53:35.918Z,98502.19
2022-12-11T12:56:40.695Z,98504.66
2022-12-11T12:59:54.474Z,98499.34
2022-12-11T13:03:13.027Z,98508.50
2022-12-11T13:06:16.146Z,98522.13
2022-12-11T13:09:28.094Z,98534.47
2022-12-11T13:12:43.944Z,98547.44
2022-12-11T13:15:46.968Z,98564.22
2022-12-11T13:18:49.875Z,98573.06
2022-12-11T13:22:11.122Z,98570.78
2022-12-11T13:25:31.227Z,98565.97
2022-12-11T13:28:39.938Z,98561.47
2022-12-11T13:31:45.483Z,98570.88
2022-12-11T13:34:58.529Z,98567.22
2022-12-11T13:38:15.711Z,98572.00
2022-12-11T13:41:22.204Z,98580.75
2022-12-11T13:44:30.677Z,98586.81
2022-12-11T13:47:46.292Z,98582.84
2022-12-11T13:50:52.171Z,98583.47
2022-12-11T13:54:17.339Z,98584.47
2022-12-11T13:57:22.929Z,98587.62
2022-12-11T14:00:30.435Z,98591.06
2022-12-11T14:03:34.063Z,98600.34
2022-12-11T14:06:38.937Z,98617.09
2022-12-11T14:09:46.580Z,98612.97
2022-12-11T14:12:57.620Z,98619.22
2022-12-11T14:16:01.486Z,98621.91
2022-12-11T14:19:07.906Z,98624.72
2022-12-11T14:22:19.601Z,98636.56
2022-12-11T14:25:26.668Z,98632.62
2022-12-11T14:28:45.138Z,98644.78
2022-12-11T14:31:51.268Z,98647.59
2022-12-11T14:34:55.418Z,98657.81
2022-12-11T14:38:02.576Z,98664.84
2022-12-11T14:41:28.242Z,98666.75
2022-12-11T14:44:38.738Z,98674.25
2022-12-11T14:47:46.105Z,98671.41
2022-12-11T14:50:55.104Z,98673.09
2022-12-11T14:53:58.868Z,98667.63
2022-12-11T14:57:06.622Z,98672.91
2022-12-11T15:00:22.304Z,98667.87
2022-12-11T15:03:34.326Z,98675.37
2022-12-11T15:06:49.685Z,98688.88
2022-12-11T15:09:58.977Z,98689.16
2022-12-11T15:13:07.172Z,98677.19
2022-12-11T15:16:23.176Z,98685.94
2022-12-11T15:19:36.527Z,98684.84
2022-12-11T15:22:44.591Z,98693.84
2022-12-11T15:25:57.969Z,98697.81
2022-12-11T15:29:04.408Z,98700.97
2022-12-11T15:32:14.192Z,98709.41
2022-12-11T15:35:26.182Z,98708.25
2022-12-11T15:38:39.597Z,98712.00
2022-12-11T15:41:43.223Z,98714.94
2022-12-11T15:44:46.621Z,98716.34
2022-12-11T15:47:49.796Z,98707.69
2022-12-11T15:51:00.704Z,98713.75
2022-12-11T15:54:04.744Z,98711.59
2022-12-11T15:57:15.283Z,98707.88
2022-12-11T16:00:21.896Z,98707.66
2022-12-11T16:03:25.801Z,98711.84
2022-12-11T16:06:28.831Z,98716.47
2022-12-11T16:09:34.545Z,98717.47
2022-12-11T16:12:37.218Z,98721.03
2022-12-11T16:15:45.408Z,98721.09
2022-12-11T16:18:48.342Z,98736.00
2022-12-11T16:21:52.387Z,98737.50
2022-12-11T16:24:55.585Z,98735.56
2022-12-11T16:28:01.517Z,98739.16
2022-12-11T16:31:04.131Z,98743.91
2022-12-11T16:34:07.157Z,98740.47
2022-12-11T16:37:10.278Z,98738.72
2022-12-11T16:40:14.662Z,98739.38
2022-12-11T16:43:17.409Z,98751.31
2022-12-11T16:46:22.433Z,98751.53
2022-12-11T16:49:25.368Z,98755.97
2022-12-11T16:52:28.776Z,98757.59
2022-12-11T16:55:31.655Z,98754.94
2022-12-11T16:58:34.937Z,98755.97
2022-12-11T17:01:41.141Z,98750.87
2022-12-11T17:04:55.165Z,98755.97
2022-12-11T17:08:05.323Z,98753.63
2022-12-11T17:11:16.912Z,98749.84
2022-12-11T17:14:20.450Z,98753.19
2022-12-11T17:17:24.874Z,98750.22
2022-12-11T17:20:35.326Z,98745.22
2022-12-11T17:23:39.650Z,98744.25
2022-12-11T17:26:44.793Z,98742.13
2022-12-11T17:29:50.183Z,98736.22
2022-12-11T17:32:58.786Z,98742.81
2022-12-11T17:36:04.573Z,98740.59
2022-12-11T17:39:10.274Z,98744.37
2022-12-11T17:42:13.502Z,98764.44
2022-12-11T17:45:16.121Z,98749.41
2022-12-11T17:48:22.493Z,98744.00
2022-12-11T17:51:25.809Z,98750.78
2022-12-11T17:54:29.088Z,98749.03
2022-12-11T17:57:31.859Z,98749.22
2022-12-11T18:00:39.012Z,98752.00
2022-12-11T18:03:45.489Z,98749.50
2022-12-11T18:06:48.034Z,98752.00
2022-12-11T18:09:56.890Z,98756.72
2022-12-11T18:13:00.998Z,98761.28
2022-12-11T18:16:08.394Z,98761.28
2022-12-11T18:19:12.457Z,98775.94
2022-12-11T18:22:15.521Z,98779.16
2022-12-11T18:25:18.764Z,98764.50
2022-12-11T18:28:22.795Z,98777.78
2022-12-11T18:31:25.778Z,98780.03
2022-12-11T18:34:32.603Z,98778.81
2022-12-11T18:37:35.930Z,98774.47
2022-12-11T18:40:41.246Z,98778.62
2022-12-11T18:43:45.571Z,98789.25
2022-12-11T18:46:52.849Z,98793.59
2022-12-11T18:49:55.825Z,98800.75
2022-12-11T18:52:58.816Z,98803.63
2022-12-11T18:56:07.630Z,98802.84
2022-12-11T18:59:15.715Z,98799.75
2022-12-11T19:02:22.594Z,98797.25
2022-12-11T19:05:30.769Z,98812.97
2022-12-11T19:08:34.077Z,98824.47
2022-12-11T19:11:43.538Z,98823.84
2022-12-11T19:14:46.482Z,98829.28
2022-12-11T19:17:49.699Z,98817.47
2022-12-11T19:21:03.146Z,98818.91
2022-12-11T19:24:16.956Z,98817.47
2022-12-11T19:27:19.734Z,98819.06
2022-12-11T19:30:23.860Z,98814.59
2022-12-11T19:33:26.720Z,98827.50
2022-12-11T19:36:30.883Z,98828.16
2022-12-11T19:39:33.931Z,98819.69
2022-12-11T19:42:39.545Z,98818.72
2022-12-11T19:45:42.651Z,98833.34
2022-12-11T19:48:48.446Z,98837.00
2022-12-11T19:51:51.439Z,98833.34
2022-12-11T19:54:57.011Z,98844.63
2022-12-11T19:58:00.525Z,98844.38
2022-12-11T20:01:07.581Z,98842.41
2022-12-11T20:04:13.842Z,98848.56
2022-12-11T20:07:16.861Z,98832.75
2022-12-11T20:10:20.216Z,98840.47
2022-12-11T20:13:23.280Z,98847.22
2022-12-11T20:16:46.252Z,98854.06
2022-12-11T20:19:52.290Z,98849.34
2022-12-11T20:22:58.620Z,98853.62
2022-12-11T20:26:22.805Z,98857.47
2022-12-11T20:29:25.870Z,98860.44
2022-12-11T20:32:28.480Z,98868.53
2022-12-11T20:35:31.340Z,98866.66
2022-12-11T20:38:34.728Z,98853.28
2022-12-11T20:41:37.979Z,98855.03
2022-12-11T20:44:45.706Z,98863.06
2022-12-11T20:47:51.728Z,98851.09
2022-12-11T20:51:00.481Z,98853.62
2022-12-11T20:54:03.949Z,98866.03
2022-12-11T20:57:06.738Z,98853.81
2022-12-11T21:00:13.105Z,98862.69
2022-12-11T21:03:16.054Z,98869.47
2022-12-11T21:06:19.178Z,98872.56
2022-12-11T21:09:24.684Z,98890.97
2022-12-11T21:12:31.518Z,98889.38
2022-12-11T21:15:38.990Z,98893.66
2022-12-11T21:18:45.524Z,98881.69
2022-12-11T21:21:49.190Z,98887.78
2022-12-11T21:24:51.986Z,98899.28
2022-12-11T21:27:54.624Z,98895.75
2022-12-11T21:31:02.811Z,98908.22
2022-12-11T21:34:05.797Z,98906.91
2022-12-11T21:37:08.911Z,98908.12
2022-12-11T21:40:13.787Z,98901.78
2022-12-11T21:43:16.641Z,98909.63
2022-12-11T21:46:22.067Z,98908.84
2022-12-11T21:49:27.655Z,98905.84
2022-12-11T21:52:31.010Z,98914.91
2022-12-11T21:55:33.867Z,98915.97
2022-12-11T21:58:38.830Z,98913.81
2022-12-11T22:01:43.935Z,98916.53
2022-12-11T22:04:47.512Z,98929.06
2022-12-11T22:07:50.088Z,98923.56
2022-12-11T22:10:53.728Z,98931.75
2022-12-11T22:13:56.666Z,98935.88
2022-12-11T22:16:59.629Z,98940.19
2022-12-11T22:20:03.419Z,98934.87
2022-12-11T22:23:06.392Z,98933.06
2022-12-11T22:26:15.319Z,98931.19
2022-12-11T22:29:18.248Z,98927.75
2022-12-11T22:32:21.010Z,98928.28
2022-12-11T22:35:27.140Z,98926.22
2022-12-11T22:38:30.237Z,98928.81
2022-12-11T22:41:33.199Z,98921.06
2022-12-11T22:44:35.904Z,98921.31
2022-12-11T22:47:39.310Z,98932.84
2022-12-11T22:50:43.780Z,98944.81
2022-12-11T22:53:47.344Z,98943.44
2022-12-11T22:56:51.438Z,98950.63
2022-12-11T22:59:54.758Z,98952.22
2022-12-11T23:02:57.429Z,98943.50
2022-12-11T23:06:05.028Z,98955.63
2022-12-11T23:09:08.599Z,98948.03
2022-12-11T23:12:11.628Z,98957.75
2022-12-11T23:15:14.500Z,98952.66
2022-12-11T23:18:17.710Z,98950.31
2022-12-11T23:21:21.848Z,98951.28
2022-12-11T23:24:24.818Z,98946.34
2022-12-11T23:27:27.484Z,98966.44
2022-12-11T23:30:30.633Z,98961.25
2022-12-11T23:33:33.510Z,98966.19
2022-12-11T23:36:37.504Z,98962.06
2022-12-11T23:39:40.072Z,98953.34
2022-12-11T23:42:42.993Z,98961.41
2022-12-11T23:45:46.407Z,98950.59
2022-12-11T23:48:50.331Z,98963.34
2022-12-11T23:51:52.962Z,98961.56
2022-12-11T23:54:55.822Z,98964.16
2022-12-11T23:57:58.862Z,98955.06
